Time;durP1;ratioP1;P1;durP2;ratioP2;P2;SDS_P1;SDS_P2;PMS_P1;PMS_P2;Temp;Humidity;BMP_temperature;BMP_pressure;BME280_temperature;BME280_humidity;BME280_pressure;Samples;Min_cycle;Max_cycle;Signal;HPM_P1;HPM_P2
2024/01/27 00:01:45;;;;;;;142.85;72.00;;;4.00;76.50;;;;;;4958885;29;20033;-68
2024/01/27 00:04:11;;;;;;;152.85;73.93;;;4.00;76.50;;;;;;4959353;29;20019;-68
2024/01/27 00:06:37;;;;;;;138.25;70.45;;;4.00;76.60;;;;;;4958740;28;20354;-68
2024/01/27 00:09:04;;;;;;;136.45;69.72;;;3.90;76.70;;;;;;4959256;29;20082;-68
2024/01/27 00:11:30;;;;;;;129.02;68.97;;;3.90;76.70;;;;;;4958632;29;20118;-68
2024/01/27 00:13:55;;;;;;;128.05;67.20;;;3.90;76.50;;;;;;4959126;29;20106;-67
2024/01/27 00:16:22;;;;;;;132.73;68.03;;;3.80;76.00;;;;;;4958532;28;20358;-68
2024/01/27 00:18:48;;;;;;;122.38;65.07;;;3.80;76.20;;;;;;4958735;29;20074;-68
2024/01/27 00:21:13;;;;;;;120.05;62.95;;;3.80;76.10;;;;;;4958501;29;20023;-68
2024/01/27 00:23:40;;;;;;;118.82;62.97;;;3.80;76.30;;;;;;4958939;29;20031;-68
2024/01/27 00:26:06;;;;;;;116.93;62.05;;;3.70;76.20;;;;;;4958435;28;20081;-68
2024/01/27 00:28:32;;;;;;;116.75;64.15;;;3.70;76.40;;;;;;4958859;28;20052;-68
2024/01/27 00:30:58;;;;;;;135.73;69.72;;;3.70;76.40;;;;;;4959162;29;20035;-68
2024/01/27 00:33:24;;;;;;;129.15;67.10;;;3.60;75.20;;;;;;4959171;29;20034;-68
2024/01/27 00:35:51;;;;;;;133.80;69.32;;;3.50;75.50;;;;;;4959612;28;20031;-68
2024/01/27 00:38:17;;;;;;;108.97;58.97;;;3.40;75.80;;;;;;4959623;28;20058;-68
2024/01/27 00:40:43;;;;;;;113.15;58.65;;;3.40;76.00;;;;;;4959182;28;20046;-69
2024/01/27 00:43:09;;;;;;;110.63;58.22;;;3.40;76.30;;;;;;4958981;29;20023;-68
2024/01/27 00:45:35;;;;;;;122.85;59.55;;;3.50;76.60;;;;;;4958463;28;20155;-68
2024/01/27 00:48:01;;;;;;;115.20;54.55;;;3.50;76.80;;;;;;4958269;28;20425;-68
2024/01/27 00:50:27;;;;;;;106.60;52.70;;;3.50;76.70;;;;;;4958479;28;20031;-68
2024/01/27 00:52:53;;;;;;;92.47;48.42;;;3.50;76.90;;;;;;4958166;28;20042;-68
2024/01/27 00:55:19;;;;;;;103.65;55.03;;;3.50;76.80;;;;;;4958052;28;20361;-68
2024/01/27 00:57:45;;;;;;;110.82;54.45;;;3.60;77.00;;;;;;4958392;29;20082;-68
2024/01/27 01:00:11;;;;;;;105.13;55.10;;;3.60;76.80;;;;;;4957984;29;20126;-68
2024/01/27 01:02:38;;;;;;;119.07;58.03;;;3.50;77.00;;;;;;4958267;29;20027;-68
2024/01/27 01:05:04;;;;;;;113.75;52.50;;;3.60;76.90;;;;;;4958106;28;20027;-68
2024/01/27 01:07:31;;;;;;;109.65;51.83;;;3.60;77.00;;;;;;4957634;28;20034;-68
2024/01/27 01:09:57;;;;;;;116.28;53.15;;;3.60;77.50;;;;;;4956684;29;20123;-68
2024/01/27 01:12:23;;;;;;;94.75;49.58;;;3.60;77.50;;;;;;4957574;28;20038;-67
2024/01/27 01:14:49;;;;;;;104.35;51.45;;;3.60;77.70;;;;;;4957524;28;20102;-68
2024/01/27 01:17:15;;;;;;;104.45;52.53;;;3.60;78.20;;;;;;4957833;28;20720;-68
2024/01/27 01:19:41;;;;;;;100.25;49.17;;;3.60;78.40;;;;;;4957393;29;20031;-67
2024/01/27 01:22:07;;;;;;;90.03;46.95;;;3.60;78.10;;;;;;4957716;28;20094;-68
2024/01/27 01:24:34;;;;;;;95.85;48.95;;;3.70;78.20;;;;;;4957417;28;20046;-68
2024/01/27 01:27:00;;;;;;;98.93;49.50;;;3.60;78.00;;;;;;4957207;28;20456;-68
2024/01/27 01:29:26;;;;;;;96.22;50.90;;;3.60;78.50;;;;;;4957356;28;20066;-68
2024/01/27 01:31:53;;;;;;;90.45;49.17;;;3.60;78.60;;;;;;4957598;28;20027;-68
2024/01/27 01:34:19;;;;;;;91.15;49.15;;;3.50;78.70;;;;;;4957336;28;20118;-68
2024/01/27 01:36:45;;;;;;;83.38;47.13;;;3.50;78.70;;;;;;4957209;28;20055;-68
2024/01/27 01:39:14;;;;;;;87.90;48.10;;;3.40;78.60;;;;;;4957177;28;20081;-68
2024/01/27 01:41:41;;;;;;;85.00;47.00;;;3.40;78.20;;;;;;4956901;28;20100;-68
2024/01/27 01:44:07;;;;;;;88.78;50.50;;;3.40;78.10;;;;;;4957468;29;20034;-67
2024/01/27 01:46:33;;;;;;;79.82;45.88;;;3.30;78.20;;;;;;4957405;28;20031;-68
2024/01/27 01:49:00;;;;;;;87.05;46.97;;;3.30;77.80;;;;;;4957129;28;20381;-68
2024/01/27 01:51:27;;;;;;;90.18;47.97;;;3.30;77.80;;;;;;4956974;29;20031;-68
2024/01/27 01:53:58;;;;;;;86.80;48.33;;;3.30;77.90;;;;;;4957107;29;20027;-68
2024/01/27 01:56:24;;;;;;;89.70;47.38;;;3.30;78.30;;;;;;4957211;28;20345;-68
2024/01/27 01:58:50;;;;;;;84.00;46.15;;;3.30;78.30;;;;;;4957027;28;20027;-68
2024/01/27 02:01:18;;;;;;;76.85;43.05;;;3.20;78.10;;;;;;4956088;29;20031;-68
2024/01/27 02:03:57;;;;;;;78.10;44.45;;;3.20;78.10;;;;;;4957014;29;20441;-68
2024/01/27 02:06:23;;;;;;;81.82;44.53;;;3.20;77.80;;;;;;4956929;28;20031;-68
2024/01/27 02:08:50;;;;;;;85.40;46.28;;;3.20;78.00;;;;;;4956979;28;20441;-68
2024/01/27 02:11:16;;;;;;;85.50;46.97;;;3.10;78.20;;;;;;4956953;28;20031;-68
2024/01/27 02:13:42;;;;;;;89.55;47.60;;;3.10;78.10;;;;;;4957470;28;20035;-68
2024/01/27 02:16:08;;;;;;;77.43;44.17;;;3.10;77.70;;;;;;4957416;28;20028;-68
2024/01/27 02:18:34;;;;;;;81.28;44.75;;;3.10;77.60;;;;;;4956821;28;20034;-68
2024/01/27 02:21:00;;;;;;;87.70;46.67;;;3.10;77.20;;;;;;4957391;29;20023;-68
2024/01/27 02:23:26;;;;;;;83.13;46.78;;;3.10;76.90;;;;;;4956866;28;20024;-68
2024/01/27 02:25:52;;;;;;;84.95;46.63;;;3.10;77.10;;;;;;4956770;28;20079;-68
2024/01/27 02:28:18;;;;;;;83.00;45.75;;;3.10;77.00;;;;;;4956801;29;20062;-68
2024/01/27 02:30:44;;;;;;;77.65;44.30;;;3.00;76.70;;;;;;4956835;28;20020;-68
2024/01/27 02:33:10;;;;;;;85.65;46.65;;;3.00;76.60;;;;;;4957014;29;20126;-68
2024/01/27 02:35:36;;;;;;;76.68;44.90;;;3.00;76.60;;;;;;4956935;28;20050;-68
2024/01/27 02:38:02;;;;;;;74.93;43.22;;;3.00;76.20;;;;;;4956720;29;20036;-68
2024/01/27 02:40:28;;;;;;;86.00;48.15;;;3.00;76.20;;;;;;4957165;28;20055;-68
2024/01/27 02:42:54;;;;;;;80.00;45.15;;;2.90;76.00;;;;;;4956113;29;20098;-68
2024/01/27 02:45:20;;;;;;;79.93;45.50;;;2.90;76.20;;;;;;4956895;28;20023;-68
2024/01/27 02:47:46;;;;;;;81.28;45.97;;;2.90;76.10;;;;;;4956627;28;20031;-68
2024/01/27 02:50:12;;;;;;;80.57;47.47;;;2.90;76.00;;;;;;4957154;29;20031;-68
2024/01/27 02:52:38;;;;;;;81.97;46.45;;;2.90;75.70;;;;;;4958511;28;20472;-68
2024/01/27 02:55:05;;;;;;;88.72;48.55;;;2.90;75.50;;;;;;4960579;28;20031;-68
2024/01/27 02:57:31;;;;;;;86.72;47.33;;;2.90;75.40;;;;;;4960337;28;20027;-68
2024/01/27 02:59:57;;;;;;;74.25;42.95;;;2.90;75.60;;;;;;4958953;28;20053;-68
2024/01/27 03:02:23;;;;;;;78.55;45.63;;;2.90;75.90;;;;;;4959924;29;20030;-68
2024/01/27 03:04:49;;;;;;;76.55;42.70;;;2.90;75.90;;;;;;4958868;28;20042;-67
2024/01/27 03:07:15;;;;;;;74.03;43.00;;;2.90;75.60;;;;;;4959879;28;20119;-68
2024/01/27 03:09:40;;;;;;;69.25;40.17;;;2.90;75.60;;;;;;4960068;28;20027;-68
2024/01/27 03:12:07;;;;;;;74.07;42.33;;;2.90;75.60;;;;;;4960307;29;20062;-68
2024/01/27 03:14:33;;;;;;;76.10;43.33;;;2.90;75.60;;;;;;4959954;29;20043;-68
2024/01/27 03:16:59;;;;;;;85.05;44.75;;;2.90;75.50;;;;;;4959621;28;20357;-68
2024/01/27 03:19:25;;;;;;;86.57;45.63;;;2.90;75.30;;;;;;4959797;29;20031;-68
2024/01/27 03:21:51;;;;;;;94.18;45.22;;;2.90;75.00;;;;;;4960072;29;20166;-68
2024/01/27 03:24:17;;;;;;;85.80;44.85;;;2.90;75.30;;;;;;4959546;29;20027;-68
2024/01/27 03:26:43;;;;;;;85.85;44.42;;;2.80;75.40;;;;;;4959409;28;20047;-68
2024/01/27 03:29:09;;;;;;;82.30;44.75;;;2.80;75.30;;;;;;4959936;29;20031;-68
2024/01/27 03:31:35;;;;;;;86.20;44.72;;;2.70;75.20;;;;;;4959643;29;20046;-68
2024/01/27 03:34:02;;;;;;;80.75;44.08;;;2.70;75.40;;;;;;4959357;29;20461;-68
2024/01/27 03:36:28;;;;;;;83.95;46.78;;;2.70;75.60;;;;;;4959326;28;20035;-68
2024/01/27 03:38:55;;;;;;;78.53;43.78;;;2.70;75.60;;;;;;4959473;28;20036;-68
2024/01/27 03:41:22;;;;;;;83.28;44.38;;;2.60;75.60;;;;;;4959219;28;20046;-68
2024/01/27 03:43:48;;;;;;;79.22;43.42;;;2.70;75.60;;;;;;4959168;28;20066;-68
2024/01/27 03:46:13;;;;;;;84.28;44.70;;;2.60;75.50;;;;;;4959377;28;20055;-68
2024/01/27 03:48:39;;;;;;;83.93;44.78;;;2.60;75.60;;;;;;4959355;29;20015;-68
2024/01/27 03:51:05;;;;;;;88.72;46.40;;;2.60;75.90;;;;;;4959025;29;20031;-67
2024/01/27 03:53:31;;;;;;;92.78;48.88;;;2.60;76.00;;;;;;4959271;29;20054;-68
2024/01/27 03:56:03;;;;;;;93.65;45.55;;;2.60;76.20;;;;;;4959439;28;20385;-67
2024/01/27 03:58:30;;;;;;;89.85;47.35;;;2.60;76.30;;;;;;4959194;28;20023;-68
2024/01/27 04:00:57;;;;;;;93.05;47.58;;;2.60;76.50;;;;;;4958930;28;20027;-68
2024/01/27 04:03:23;;;;;;;92.70;47.47;;;2.50;76.30;;;;;;4958547;28;20028;-67
2024/01/27 04:05:49;;;;;;;87.15;47.00;;;2.50;76.10;;;;;;4958823;28;20073;-68
2024/01/27 04:08:16;;;;;;;80.45;42.70;;;2.40;76.20;;;;;;4958745;28;20031;-67
2024/01/27 04:10:42;;;;;;;93.85;47.08;;;2.40;76.30;;;;;;4958659;29;20031;-68
2024/01/27 04:13:08;;;;;;;93.80;47.42;;;2.50;76.40;;;;;;4958661;28;20031;-68
2024/01/27 04:15:38;;;;;;;88.07;44.20;;;2.50;76.50;;;;;;4958538;28;20023;-68
2024/01/27 04:18:09;;;;;;;101.43;50.15;;;2.50;76.40;;;;;;4958857;28;20066;-68
2024/01/27 04:20:35;;;;;;;102.60;50.70;;;2.50;76.40;;;;;;4958413;28;20144;-68
2024/01/27 04:23:02;;;;;;;104.80;51.80;;;2.50;76.30;;;;;;4957458;29;20431;-68
2024/01/27 04:25:28;;;;;;;112.47;53.50;;;2.50;76.50;;;;;;4958313;28;20373;-68
2024/01/27 04:27:54;;;;;;;103.60;52.42;;;2.50;76.90;;;;;;4958640;29;20027;-67
2024/01/27 04:30:20;;;;;;;102.32;47.42;;;2.40;76.90;;;;;;4958836;28;20034;-68
2024/01/27 04:32:49;;;;;;;97.30;49.90;;;2.40;76.90;;;;;;4958240;29;20035;-68
2024/01/27 04:35:14;;;;;;;98.70;51.28;;;2.40;76.80;;;;;;4958142;28;20035;-68
2024/01/27 04:37:41;;;;;;;104.57;50.42;;;2.40;76.80;;;;;;4958714;28;20031;-69
2024/01/27 04:40:07;;;;;;;107.70;53.35;;;2.30;76.70;;;;;;4958019;29;20055;-66
2024/01/27 04:42:34;;;;;;;94.10;48.00;;;2.20;76.30;;;;;;4958102;29;20468;-66
2024/01/27 04:45:00;;;;;;;97.63;46.83;;;2.20;76.40;;;;;;4957991;28;20019;-68
2024/01/27 04:47:26;;;;;;;103.55;50.45;;;2.10;76.60;;;;;;4958033;29;20023;-68
2024/01/27 04:49:53;;;;;;;98.43;50.00;;;2.10;76.60;;;;;;4958250;28;20081;-69
2024/01/27 04:52:19;;;;;;;97.68;49.70;;;2.00;76.50;;;;;;4958231;28;20023;-68
2024/01/27 04:54:45;;;;;;;85.45;47.28;;;2.00;76.50;;;;;;4957804;28;20111;-68
2024/01/27 04:57:11;;;;;;;89.38;47.45;;;1.90;75.30;;;;;;4958114;29;20051;-68
2024/01/27 04:59:37;;;;;;;77.43;43.17;;;1.90;75.70;;;;;;4957998;28;20500;-68
2024/01/27 05:02:03;;;;;;;76.85;42.10;;;1.90;75.80;;;;;;4958027;28;20023;-68
2024/01/27 05:04:29;;;;;;;81.53;42.40;;;1.90;76.20;;;;;;4957670;29;20023;-68
2024/01/27 05:06:55;;;;;;;67.63;37.22;;;1.90;76.40;;;;;;4957616;28;20042;-68
2024/01/27 05:09:21;;;;;;;84.82;45.55;;;1.90;76.40;;;;;;4957658;28;20023;-68
2024/01/27 05:11:48;;;;;;;78.53;42.92;;;2.00;76.30;;;;;;4957864;28;20035;-68
2024/01/27 05:14:14;;;;;;;82.10;44.40;;;2.00;75.90;;;;;;4957849;28;20453;-68
2024/01/27 05:16:40;;;;;;;78.55;43.05;;;2.00;75.80;;;;;;4956911;28;20039;-68
2024/01/27 05:19:06;;;;;;;84.15;45.15;;;1.90;75.70;;;;;;4957411;29;20035;-68
2024/01/27 05:21:32;;;;;;;78.20;43.17;;;2.00;75.80;;;;;;4957725;28;20020;-68
2024/01/27 05:23:58;;;;;;;79.30;43.05;;;2.00;75.70;;;;;;4957664;29;20023;-68
2024/01/27 05:26:24;;;;;;;81.93;42.33;;;2.00;75.70;;;;;;4957178;28;20477;-68
2024/01/27 05:28:50;;;;;;;80.68;45.20;;;2.10;75.80;;;;;;4957398;28;20104;-68
2024/01/27 05:31:16;;;;;;;86.18;45.15;;;2.10;75.70;;;;;;4957842;29;20187;-68
2024/01/27 05:33:43;;;;;;;83.05;41.72;;;2.10;75.60;;;;;;4957267;29;20106;-67
2024/01/27 05:36:09;;;;;;;86.93;45.45;;;2.10;75.80;;;;;;4957318;28;20023;-68
2024/01/27 05:38:34;;;;;;;74.85;41.22;;;2.10;75.50;;;;;;4957272;29;20023;-68
2024/01/27 05:41:01;;;;;;;89.88;46.30;;;2.10;75.60;;;;;;4957268;29;20456;-68
2024/01/27 05:43:27;;;;;;;83.13;46.35;;;2.10;75.50;;;;;;4957467;28;20059;-68
2024/01/27 05:45:53;;;;;;;88.85;47.40;;;2.10;74.40;;;;;;4957380;28;20035;-67
2024/01/27 05:48:20;;;;;;;87.20;44.28;;;2.10;74.30;;;;;;4957155;28;20031;-68
2024/01/27 05:50:58;;;;;;;95.05;49.47;;;2.10;74.90;;;;;;4957097;29;20166;-68
2024/01/27 05:53:25;;;;;;;80.22;44.13;;;2.10;74.60;;;;;;4957645;28;20038;-67
2024/01/27 05:55:52;;;;;;;85.93;46.67;;;2.00;75.00;;;;;;4957297;28;20082;-67
2024/01/27 05:58:21;;;;;;;83.47;44.80;;;2.00;74.90;;;;;;4957020;28;20071;-68
2024/01/27 06:00:47;;;;;;;84.20;42.53;;;2.00;75.20;;;;;;4957212;28;20036;-68
2024/01/27 06:03:14;;;;;;;84.68;45.25;;;2.00;75.10;;;;;;4957004;28;20445;-68
2024/01/27 06:05:42;;;;;;;77.10;40.42;;;2.00;75.10;;;;;;4956889;28;20037;-68
2024/01/27 06:08:08;;;;;;;88.38;45.53;;;2.00;75.10;;;;;;4956901;28;20395;-68
2024/01/27 06:10:36;;;;;;;84.25;45.08;;;2.00;75.20;;;;;;4956976;28;20035;-67
2024/01/27 06:13:03;;;;;;;83.18;43.83;;;2.00;75.20;;;;;;4956892;29;20027;-67
2024/01/27 06:15:29;;;;;;;81.13;42.97;;;2.00;75.10;;;;;;4956833;28;20055;-68
2024/01/27 06:17:55;;;;;;;80.20;44.65;;;2.00;75.00;;;;;;4957144;29;20043;-68
2024/01/27 06:20:21;;;;;;;79.93;42.30;;;1.90;75.10;;;;;;4956763;29;20095;-67
2024/01/27 06:22:47;;;;;;;82.35;45.78;;;2.00;74.80;;;;;;4957060;29;20028;-67
2024/01/27 06:25:14;;;;;;;74.65;41.10;;;1.90;74.70;;;;;;4956604;28;20020;-67
2024/01/27 06:27:41;;;;;;;82.78;43.72;;;1.90;74.90;;;;;;4958713;28;20031;-68
2024/01/27 06:30:09;;;;;;;80.25;45.40;;;1.90;74.90;;;;;;4960493;29;20035;-68
2024/01/27 06:32:35;;;;;;;85.93;46.67;;;1.90;73.20;;;;;;4960434;28;20050;-67
2024/01/27 06:35:01;;;;;;;80.07;43.03;;;1.80;73.50;;;;;;4960625;28;20082;-68
2024/01/27 06:37:27;;;;;;;84.22;43.45;;;1.70;73.90;;;;;;4960425;28;20114;-68
2024/01/27 06:39:53;;;;;;;73.43;40.58;;;1.70;74.60;;;;;;4960274;29;20030;-68
2024/01/27 06:42:19;;;;;;;76.28;42.42;;;1.70;74.70;;;;;;4960832;29;20027;-68
2024/01/27 06:44:45;;;;;;;82.57;43.20;;;1.70;74.70;;;;;;4960182;28;20023;-67
2024/01/27 06:47:11;;;;;;;82.32;46.33;;;1.70;75.00;;;;;;4960256;28;20027;-68
2024/01/27 06:49:37;;;;;;;82.55;45.30;;;1.70;74.80;;;;;;4960184;29;20070;-68
2024/01/27 06:52:03;;;;;;;82.82;42.65;;;1.70;74.70;;;;;;4960107;29;20031;-68
2024/01/27 06:54:29;;;;;;;82.65;42.47;;;1.70;75.10;;;;;;5229731;23;20066;-72
2024/01/27 06:56:55;;;;;;;84.30;45.03;;;1.70;75.10;;;;;;4979626;28;20027;-71
2024/01/27 06:59:21;;;;;;;73.50;40.05;;;1.80;75.20;;;;;;4979778;28;20440;-71
2024/01/27 07:01:51;;;;;;;81.43;44.22;;;1.80;75.30;;;;;;4979254;28;20023;-71
2024/01/27 07:04:17;;;;;;;86.38;46.28;;;1.80;75.30;;;;;;4979376;28;20118;-71
2024/01/27 07:06:44;;;;;;;86.05;48.55;;;1.80;74.50;;;;;;4979422;28;20165;-71
2024/01/27 07:09:10;;;;;;;86.95;49.50;;;1.80;74.90;;;;;;4979385;28;20442;-71
2024/01/27 07:11:36;;;;;;;84.50;46.22;;;1.90;74.70;;;;;;4979616;28;20027;-71
2024/01/27 07:14:06;;;;;;;82.57;43.58;;;1.90;74.60;;;;;;4978981;28;20034;-71
2024/01/27 07:16:33;;;;;;;77.03;41.63;;;1.90;74.70;;;;;;4979231;28;20022;-71
2024/01/27 07:19:00;;;;;;;74.80;41.30;;;1.90;73.90;;;;;;4979136;28;20046;-71
2024/01/27 07:21:28;;;;;;;75.57;42.42;;;1.90;74.50;;;;;;4977898;28;20074;-71
2024/01/27 07:23:54;;;;;;;73.13;39.25;;;1.90;74.90;;;;;;4978697;28;20030;-71
2024/01/27 07:26:20;;;;;;;79.78;43.22;;;1.90;75.00;;;;;;4979049;28;20019;-71
2024/01/27 07:28:46;;;;;;;75.93;42.78;;;1.90;74.80;;;;;;4978743;28;20069;-72
2024/01/27 07:31:13;;;;;;;82.40;44.03;;;2.00;74.70;;;;;;4978761;28;20360;-71
2024/01/27 07:33:39;;;;;;;66.38;37.75;;;2.00;74.80;;;;;;4978616;28;20146;-71
2024/01/27 07:38:34;;;;;;;69.82;39.53;;;2.20;75.50;;;;;;5216348;23;20372;-75
2024/01/27 07:41:00;;;;;;;76.78;43.13;;;2.30;75.30;;;;;;4978501;28;20027;-75
2024/01/27 07:43:27;;;;;;;83.78;41.75;;;2.40;75.30;;;;;;4978530;28;20154;-75
2024/01/27 07:45:53;;;;;;;80.05;42.30;;;2.40;75.10;;;;;;4978705;28;20041;-75
2024/01/27 07:48:19;;;;;;;84.13;43.42;;;2.40;75.60;;;;;;4978630;28;20034;-75
2024/01/27 07:50:48;;;;;;;85.65;44.10;;;2.40;75.40;;;;;;4978670;28;20375;-75
2024/01/27 07:53:15;;;;;;;99.78;48.38;;;2.40;75.50;;;;;;4978350;28;20050;-75
2024/01/27 07:55:41;;;;;;;80.45;41.55;;;2.30;76.00;;;;;;4978543;28;20034;-75
2024/01/27 07:58:07;;;;;;;87.07;42.58;;;2.30;76.10;;;;;;4978246;28;20064;-75
2024/01/27 08:00:33;;;;;;;84.65;41.88;;;2.40;76.30;;;;;;4978431;28;20102;-75
2024/01/27 08:02:59;;;;;;;78.53;40.50;;;2.40;76.80;;;;;;4978722;28;20105;-75
2024/01/27 08:05:25;;;;;;;81.53;41.00;;;2.40;77.00;;;;;;4978392;28;20034;-75
2024/01/27 08:07:51;;;;;;;85.05;41.35;;;2.50;76.60;;;;;;4977955;28;20027;-75
2024/01/27 08:10:17;;;;;;;94.68;44.50;;;2.60;77.00;;;;;;4978028;28;20105;-75
2024/01/27 08:12:43;;;;;;;85.85;42.60;;;2.60;77.30;;;;;;4978017;28;20082;-75
2024/01/27 08:15:09;;;;;;;83.22;40.60;;;2.60;77.50;;;;;;4976959;28;20027;-75
2024/01/27 08:17:35;;;;;;;74.03;36.80;;;2.70;77.40;;;;;;4978049;28;20027;-75
2024/01/27 08:20:02;;;;;;;59.20;32.13;;;2.80;77.60;;;;;;4977729;28;20184;-75
2024/01/27 08:22:28;;;;;;;69.22;36.78;;;2.80;77.50;;;;;;4978029;28;20019;-75
2024/01/27 08:24:55;;;;;;;64.10;32.10;;;2.90;77.20;;;;;;4977984;28;20023;-75
2024/01/27 08:27:21;;;;;;;61.45;33.63;;;2.90;77.00;;;;;;4978282;28;20089;-75
2024/01/27 08:29:47;;;;;;;66.70;32.75;;;3.00;77.00;;;;;;4978195;28;20065;-74
2024/01/27 08:32:13;;;;;;;61.60;32.05;;;2.90;76.90;;;;;;4977600;28;20026;-74
2024/01/27 08:34:39;;;;;;;63.25;31.60;;;2.90;77.10;;;;;;4977514;28;20356;-75
2024/01/27 08:37:17;;;;;;;97.78;45.83;;;3.00;77.50;;;;;;4977353;28;20341;-74
2024/01/27 08:39:43;;;;;;;77.70;38.53;;;2.90;76.50;;;;;;4977687;28;20093;-76
2024/01/27 08:42:09;;;;;;;73.00;34.42;;;2.90;77.00;;;;;;4977381;28;20097;-76
2024/01/27 08:44:35;;;;;;;67.95;32.42;;;2.80;77.60;;;;;;4977567;28;20453;-75
2024/01/27 08:47:01;;;;;;;61.97;32.25;;;2.80;77.80;;;;;;4977543;28;20050;-74
2024/01/27 08:49:27;;;;;;;63.88;32.10;;;2.90;77.50;;;;;;4977174;28;20085;-74
2024/01/27 08:51:54;;;;;;;68.90;34.40;;;2.90;77.50;;;;;;4977289;28;20035;-74
2024/01/27 08:54:23;;;;;;;65.68;34.00;;;2.90;77.70;;;;;;4977390;28;20041;-74
2024/01/27 08:56:48;;;;;;;68.72;34.05;;;3.00;77.20;;;;;;4977414;28;20049;-74
2024/01/27 08:59:15;;;;;;;65.22;33.92;;;3.00;77.10;;;;;;4977479;28;20030;-74
2024/01/27 09:01:41;;;;;;;69.30;35.60;;;3.10;77.20;;;;;;4977331;28;20030;-76
2024/01/27 09:04:09;;;;;;;63.70;34.22;;;3.10;77.20;;;;;;4976936;28;20035;-75
2024/01/27 09:06:35;;;;;;;66.38;34.15;;;3.10;77.50;;;;;;4977011;28;20017;-74
2024/01/27 09:09:01;;;;;;;68.60;34.70;;;3.20;77.70;;;;;;4976845;28;20031;-74
2024/01/27 09:11:29;;;;;;;77.10;36.90;;;3.30;77.80;;;;;;4976871;28;20023;-76
2024/01/27 09:13:56;;;;;;;70.20;37.90;;;3.30;77.50;;;;;;4976755;28;20030;-74
2024/01/27 09:16:23;;;;;;;68.70;35.72;;;3.40;77.70;;;;;;4977013;28;20027;-74
2024/01/27 09:18:50;;;;;;;73.13;38.25;;;3.40;77.80;;;;;;4976858;28;20314;-74
2024/01/27 09:21:20;;;;;;;72.55;37.90;;;3.50;78.00;;;;;;4976663;28;20496;-74
2024/01/27 09:23:47;;;;;;;80.47;39.72;;;3.60;77.90;;;;;;4976933;28;20039;-74
2024/01/27 09:26:15;;;;;;;83.03;42.13;;;3.70;77.60;;;;;;4976591;28;20023;-74
2024/01/27 09:28:45;;;;;;;80.60;40.30;;;3.70;77.50;;;;;;4976530;28;20041;-74
2024/01/27 09:31:11;;;;;;;80.57;41.92;;;3.90;77.50;;;;;;4976865;28;20113;-75
2024/01/27 09:33:37;;;;;;;80.07;40.72;;;3.90;77.50;;;;;;4977190;28;20158;-74
2024/01/27 09:36:04;;;;;;;79.88;38.28;;;4.00;77.30;;;;;;4986451;28;20030;-74
2024/01/27 09:38:30;;;;;;;72.13;37.30;;;4.10;77.10;;;;;;4985994;28;20059;-75
2024/01/27 09:40:56;;;;;;;74.57;37.88;;;4.20;77.30;;;;;;5234536;23;20073;-70
2024/01/27 09:43:24;;;;;;;74.15;38.17;;;4.20;77.20;;;;;;4996145;28;20109;-70
2024/01/27 09:45:50;;;;;;;66.47;34.80;;;4.40;77.10;;;;;;4996070;28;20030;-70
2024/01/27 09:48:17;;;;;;;70.72;34.92;;;4.40;77.00;;;;;;4996040;28;20359;-72
2024/01/27 09:50:45;;;;;;;69.80;37.45;;;4.40;77.00;;;;;;4995944;28;20039;-72
2024/01/27 09:53:12;;;;;;;69.60;37.22;;;4.50;77.10;;;;;;4996036;28;20034;-72
2024/01/27 09:55:38;;;;;;;68.63;34.67;;;4.60;76.90;;;;;;4995735;28;20019;-70
2024/01/27 09:58:05;;;;;;;68.75;36.47;;;4.60;76.90;;;;;;4995901;28;20156;-71
2024/01/27 10:00:33;;;;;;;64.03;35.47;;;4.70;77.10;;;;;;4995476;28;20026;-72
2024/01/27 10:02:59;;;;;;;63.15;34.80;;;4.80;77.10;;;;;;4998989;28;20111;-72
2024/01/27 10:05:27;;;;;;;67.45;36.35;;;4.80;76.80;;;;;;4999747;28;20054;-72
2024/01/27 10:07:53;;;;;;;70.85;36.03;;;4.90;76.70;;;;;;4999919;28;20037;-72
2024/01/27 10:10:18;;;;;;;70.32;35.67;;;4.90;76.60;;;;;;4999821;28;20026;-72
2024/01/27 10:12:47;;;;;;;67.82;36.85;;;5.00;76.60;;;;;;4999611;28;20084;-72
2024/01/27 10:15:23;;;;;;;68.18;34.38;;;5.00;76.80;;;;;;4999384;28;20027;-72
2024/01/27 10:17:49;;;;;;;67.93;35.22;;;5.20;77.00;;;;;;5282733;23;20054;-72
2024/01/27 10:20:18;;;;;;;56.63;32.58;;;5.20;77.20;;;;;;4999050;28;20030;-72
2024/01/27 10:22:45;;;;;;;64.88;32.30;;;5.30;77.00;;;;;;4998442;28;20030;-72
2024/01/27 10:25:11;;;;;;;64.38;32.58;;;5.40;76.60;;;;;;4997503;28;20456;-72
2024/01/27 10:27:38;;;;;;;64.70;34.58;;;5.40;76.30;;;;;;4998636;28;20058;-71
2024/01/27 10:30:07;;;;;;;67.85;35.30;;;5.50;76.20;;;;;;4999536;28;20056;-71
2024/01/27 10:32:33;;;;;;;66.55;35.08;;;5.60;76.10;;;;;;4999489;28;20040;-71
2024/01/27 10:35:10;;;;;;;64.47;35.53;;;5.60;76.30;;;;;;4999188;28;20030;-71
2024/01/27 10:37:39;;;;;;;70.88;34.80;;;5.60;76.00;;;;;;4999341;28;20026;-71
2024/01/27 10:40:12;;;;;;;68.03;35.78;;;5.60;75.80;;;;;;4998928;28;20455;-71
2024/01/27 10:42:38;;;;;;;64.23;34.20;;;5.60;75.70;;;;;;4998229;28;20034;-71
2024/01/27 10:45:05;;;;;;;67.35;35.47;;;5.70;75.90;;;;;;4999233;28;20337;-71
2024/01/27 10:47:32;;;;;;;67.82;35.00;;;5.70;76.10;;;;;;4999238;28;20019;-71
2024/01/27 10:49:59;;;;;;;63.38;32.13;;;5.70;76.30;;;;;;4998870;28;20101;-71
2024/01/27 10:52:32;;;;;;;60.65;32.05;;;5.80;75.90;;;;;;4998887;28;20065;-71
2024/01/27 10:55:03;;;;;;;61.17;32.28;;;5.80;76.00;;;;;;4998231;28;20034;-71
2024/01/27 10:57:31;;;;;;;70.80;36.45;;;5.90;76.40;;;;;;4998689;28;20113;-71
2024/01/27 10:59:58;;;;;;;75.85;40.67;;;5.90;76.40;;;;;;4998712;28;20026;-71
2024/01/27 11:02:25;;;;;;;69.72;36.97;;;6.00;76.70;;;;;;4998644;28;20026;-71
2024/01/27 11:04:54;;;;;;;60.95;34.30;;;6.10;76.50;;;;;;4997699;28;20030;-71
2024/01/27 11:07:22;;;;;;;60.80;35.33;;;6.20;76.50;;;;;;4998773;28;20022;-71
2024/01/27 11:09:53;;;;;;;64.07;35.70;;;6.30;76.20;;;;;;4998829;28;20045;-71
2024/01/27 11:15:14;;;;;;;63.35;36.30;;;6.40;75.20;;;;;;5141623;23;20063;-75
2024/01/27 11:17:41;;;;;;;62.75;36.33;;;6.40;75.60;;;;;;4959957;28;20093;-75
2024/01/27 11:20:11;;;;;;;61.65;34.75;;;6.50;75.30;;;;;;4959487;28;20027;-75
2024/01/27 11:22:37;;;;;;;61.50;34.97;;;6.50;75.30;;;;;;4959787;28;20015;-75
2024/01/27 11:25:13;;;;;;;58.92;32.38;;;6.60;75.20;;;;;;4959334;28;20023;-75
2024/01/27 11:27:44;;;;;;;63.72;34.03;;;6.60;75.00;;;;;;4959651;28;20031;-75
2024/01/27 11:30:29;;;;;;;60.67;32.92;;;6.60;75.10;;;;;;4959399;28;20027;-75
2024/01/27 11:33:00;;;;;;;68.35;35.72;;;6.70;75.00;;;;;;4959865;28;20024;-75
2024/01/27 11:35:26;;;;;;;64.53;34.72;;;6.70;75.30;;;;;;4959254;28;20031;-75
2024/01/27 11:37:57;;;;;;;63.38;34.53;;;6.80;75.20;;;;;;4959495;28;20031;-75
2024/01/27 11:40:23;;;;;;;60.95;31.77;;;6.80;75.30;;;;;;4959439;28;20070;-75
2024/01/27 11:42:59;;;;;;;68.03;34.70;;;6.90;75.30;;;;;;4959413;28;20039;-75
2024/01/27 11:45:25;;;;;;;69.47;35.63;;;6.90;75.10;;;;;;4959023;28;20422;-75
2024/01/27 11:47:51;;;;;;;72.38;37.22;;;6.90;75.30;;;;;;4959059;28;20030;-75
2024/01/27 11:50:18;;;;;;;66.10;34.78;;;7.00;75.50;;;;;;4959029;28;20365;-75
2024/01/27 11:52:44;;;;;;;69.45;35.80;;;7.00;75.30;;;;;;4959247;28;20058;-75
2024/01/27 11:55:10;;;;;;;75.60;38.13;;;7.10;75.20;;;;;;4958920;28;20038;-75
2024/01/27 11:57:37;;;;;;;63.33;34.28;;;7.10;75.10;;;;;;4958874;28;20023;-75
2024/01/27 12:00:04;;;;;;;77.82;41.25;;;7.10;75.00;;;;;;4958753;28;20456;-75
2024/01/27 12:02:30;;;;;;;71.00;36.10;;;7.20;75.20;;;;;;4958826;28;20026;-75
2024/01/27 12:04:56;;;;;;;71.63;37.63;;;7.20;75.40;;;;;;4958721;28;20020;-75
2024/01/27 12:07:22;;;;;;;75.60;37.95;;;7.20;75.60;;;;;;4958659;28;20019;-75
2024/01/27 12:09:51;;;;;;;76.97;38.58;;;7.30;75.40;;;;;;4959211;28;20035;-75
2024/01/27 12:12:17;;;;;;;75.25;38.80;;;7.30;75.30;;;;;;4958908;28;20027;-75
2024/01/27 12:14:48;;;;;;;80.00;41.30;;;7.40;75.30;;;;;;4958491;28;20082;-75
2024/01/27 12:17:15;;;;;;;77.40;39.45;;;7.40;75.30;;;;;;4957590;29;20063;-75
2024/01/27 12:19:49;;;;;;;73.88;37.85;;;7.40;75.50;;;;;;4957839;29;20039;-75
2024/01/27 12:22:22;;;;;;;85.57;40.45;;;7.40;75.10;;;;;;4958450;28;20019;-75
2024/01/27 12:24:49;;;;;;;80.15;40.67;;;7.40;75.40;;;;;;4957934;28;20528;-75
2024/01/27 12:27:17;;;;;;;82.13;41.50;;;7.50;75.50;;;;;;4958366;28;20054;-75
2024/01/27 12:29:43;;;;;;;83.22;43.08;;;7.50;75.60;;;;;;4958249;28;20047;-74
2024/01/27 12:32:13;;;;;;;88.95;43.72;;;7.50;75.70;;;;;;4958953;28;20023;-74
2024/01/27 12:34:43;;;;;;;90.30;44.17;;;7.60;76.00;;;;;;4958143;28;20023;-74
2024/01/27 12:37:12;;;;;;;83.93;43.33;;;7.60;75.80;;;;;;4958191;28;20038;-75
2024/01/27 12:39:43;;;;;;;89.43;44.80;;;7.60;75.70;;;;;;4958570;28;20038;-75